Time;durP1;ratioP1;P1;durP2;ratioP2;P2;SDS_P1;SDS_P2;PMS_P1;PMS_P2;Temp;Humidity;BMP_temperature;BMP_pressure;BME280_temperature;BME280_humidity;BME280_pressure;Samples;Min_cycle;Max_cycle;Signal;HPM_P1;HPM_P2
2023/09/17 00:00:37;;;;;;;;;;;23.10;77.20;;;;;;4970830;28;19975;-76
2023/09/17 00:03:04;;;;;;;;;;;23.10;77.30;;;;;;4976103;28;20207;-76
2023/09/17 00:05:32;;;;;;;;;;;23.00;77.30;;;;;;4974377;28;19969;-77
2023/09/17 00:07:59;;;;;;;;;;;23.00;77.40;;;;;;4981546;28;20120;-76
2023/09/17 00:10:25;;;;;;;;;;;22.90;77.50;;;;;;4987135;28;20443;-77
2023/09/17 00:12:55;;;;;;;;;;;22.90;77.60;;;;;;4978056;28;20090;-76
2023/09/17 00:15:22;;;;;;;;;;;22.90;77.80;;;;;;4979417;28;20095;-77
2023/09/17 00:17:48;;;;;;;;;;;22.90;77.90;;;;;;4960547;28;20120;-77
2023/09/17 00:20:16;;;;;;;;;;;22.90;78.00;;;;;;4975038;28;20070;-77
2023/09/17 00:22:43;;;;;;;;;;;22.80;78.00;;;;;;4961990;28;20194;-76
2023/09/17 00:25:10;;;;;;;;;;;22.80;78.20;;;;;;4974834;28;19990;-77
2023/09/17 00:27:36;;;;;;;;;;;22.80;78.20;;;;;;4972200;28;20181;-77
2023/09/17 00:30:05;;;;;;;;;;;22.80;78.30;;;;;;4959141;28;20109;-77
2023/09/17 00:32:32;;;;;;;;;;;22.70;78.30;;;;;;4971897;28;20110;-76
2023/09/17 00:34:58;;;;;;;;;;;22.70;78.40;;;;;;4973892;28;19973;-76
2023/09/17 00:37:25;;;;;;;;;;;22.70;78.50;;;;;;4971131;28;25080;-77
2023/09/17 00:39:52;;;;;;;;;;;22.70;78.50;;;;;;4971523;28;19978;-77
2023/09/17 00:42:18;;;;;;;;;;;22.60;78.50;;;;;;4972855;28;20484;-77
2023/09/17 00:44:45;;;;;;;;;;;22.60;79.30;;;;;;4958633;28;19978;-77
2023/09/17 00:47:14;;;;;;;;;;;22.60;78.60;;;;;;4975909;28;20118;-76
2023/09/17 00:49:40;;;;;;;;;;;22.60;78.70;;;;;;4972599;28;20071;-77
2023/09/17 00:52:11;;;;;;;;;;;22.50;78.80;;;;;;4977397;28;20557;-77
2023/09/17 00:54:38;;;;;;;;;;;22.50;78.90;;;;;;4971430;28;20093;-77
2023/09/17 00:57:05;;;;;;;;;;;22.50;79.00;;;;;;4957566;28;19966;-77
2023/09/17 00:59:31;;;;;;;;;;;22.50;79.10;;;;;;4971631;28;25064;-77
2023/09/17 01:01:58;;;;;;;;;;;22.40;79.10;;;;;;4998156;28;19980;-77
2023/09/17 01:04:27;;;;;;;;;;;22.40;79.10;;;;;;5006950;28;20252;-76
2023/09/17 01:06:55;;;;;;;;;;;22.40;79.20;;;;;;4977613;28;20201;-77
2023/09/17 01:09:22;;;;;;;;;;;22.40;79.30;;;;;;5040174;28;19984;-77
2023/09/17 01:11:49;;;;;;;;;;;22.40;79.30;;;;;;5020390;28;20397;-77
2023/09/17 01:14:17;;;;;;;;;;;22.40;79.40;;;;;;5016603;28;20142;-77
2023/09/17 01:16:46;;;;;;;;;;;22.30;79.30;;;;;;5032615;28;20109;-77
2023/09/17 01:19:15;;;;;;;;;;;22.30;79.50;;;;;;5001180;28;20020;-77
2023/09/17 01:21:48;;;;;;;;;;;22.30;79.50;;;;;;5026498;28;25056;-77
2023/09/17 01:24:21;;;;;;;;;;;22.30;79.60;;;;;;5048859;28;20466;-77
2023/09/17 01:26:58;;;;;;;;;;;22.30;79.60;;;;;;5032215;28;20635;-76
2023/09/17 01:29:25;;;;;;;;;;;22.20;79.60;;;;;;5020509;28;20140;-77
2023/09/17 01:31:51;;;;;;;;;;;22.20;79.70;;;;;;4988922;28;20103;-77
2023/09/17 01:34:18;;;;;;;;;;;22.10;79.80;;;;;;4975045;28;25058;-77
2023/09/17 01:36:45;;;;;;;;;;;22.20;79.90;;;;;;5046355;28;19960;-76
2023/09/17 01:39:14;;;;;;;;;;;22.10;80.00;;;;;;5015861;28;25067;-77
2023/09/17 01:41:41;;;;;;;;;;;22.10;80.00;;;;;;5026164;28;20014;-77
2023/09/17 01:44:10;;;;;;;;;;;22.10;80.10;;;;;;5038921;28;20099;-77
2023/09/17 01:46:39;;;;;;;;;;;22.10;80.10;;;;;;5056356;28;25479;-77
2023/09/17 01:49:06;;;;;;;;;;;22.00;80.20;;;;;;5029956;28;20092;-77
2023/09/17 01:51:33;;;;;;;;;;;22.00;80.40;;;;;;4992175;28;19975;-77
2023/09/17 01:54:00;;;;;;;;;;;22.00;80.40;;;;;;5034470;28;25103;-77
2023/09/17 01:56:27;;;;;;;;;;;22.00;80.50;;;;;;4991077;28;19974;-76
2023/09/17 01:58:54;;;;;;;;;;;22.00;80.60;;;;;;4989578;28;20130;-77
2023/09/17 02:01:22;;;;;;;;;;;21.90;80.70;;;;;;5002409;28;20049;-76
2023/09/17 02:03:49;;;;;;;;;;;21.90;80.70;;;;;;4995590;28;20207;-77
2023/09/17 02:06:16;;;;;;;;;;;21.90;80.80;;;;;;4972183;28;20146;-77
2023/09/17 02:08:42;;;;;;;;;;;21.90;80.90;;;;;;4974424;28;20111;-77
2023/09/17 02:11:09;;;;;;;;;;;21.80;80.90;;;;;;4976588;28;20093;-77
2023/09/17 02:13:36;;;;;;;;;;;21.80;80.90;;;;;;4970434;28;20164;-77
2023/09/17 02:16:03;;;;;;;;;;;21.80;81.00;;;;;;4978117;28;20102;-76
2023/09/17 02:18:31;;;;;;;;;;;21.80;81.10;;;;;;4960991;28;25049;-77
2023/09/17 02:20:58;;;;;;;;;;;21.80;81.10;;;;;;4973303;28;20068;-77
2023/09/17 02:23:25;;;;;;;;;;;21.80;81.20;;;;;;4977578;28;20116;-77
2023/09/17 02:25:52;;;;;;;;;;;21.80;81.30;;;;;;4974282;28;20423;-77
2023/09/17 02:28:18;;;;;;;;;;;21.70;81.40;;;;;;4970824;28;20074;-77
2023/09/17 02:30:45;;;;;;;;;;;21.70;81.50;;;;;;4979049;28;20087;-76
2023/09/17 02:33:12;;;;;;;;;;;21.70;81.60;;;;;;4970141;28;20124;-77
2023/09/17 02:35:40;;;;;;;;;;;21.70;81.70;;;;;;4971018;28;19969;-77
2023/09/17 02:38:06;;;;;;;;;;;21.70;81.80;;;;;;4976627;28;20098;-77
2023/09/17 02:40:33;;;;;;;;;;;21.60;81.90;;;;;;4954776;28;20212;-77
2023/09/17 02:43:01;;;;;;;;;;;21.60;81.90;;;;;;4974646;28;20211;-77
2023/09/17 02:45:27;;;;;;;;;;;21.60;82.00;;;;;;4969015;28;20619;-77
2023/09/17 02:47:54;;;;;;;;;;;21.60;82.00;;;;;;4970736;28;19961;-77
2023/09/17 02:50:21;;;;;;;;;;;21.60;82.00;;;;;;4972165;28;20085;-77
2023/09/17 02:52:49;;;;;;;;;;;21.60;82.00;;;;;;5011922;28;20124;-77
2023/09/17 02:55:16;;;;;;;;;;;21.60;82.00;;;;;;5005189;28;19976;-77
2023/09/17 02:57:42;;;;;;;;;;;21.60;82.00;;;;;;4970331;28;20541;-77
2023/09/17 03:00:10;;;;;;;;;;;21.60;82.00;;;;;;4971675;28;20104;-77
2023/09/17 03:02:38;;;;;;;;;;;21.50;82.00;;;;;;5009612;28;20049;-77
2023/09/17 03:05:05;;;;;;;;;;;21.50;82.00;;;;;;5026719;28;20194;-77
2023/09/17 03:07:32;;;;;;;;;;;21.50;82.00;;;;;;5042922;28;20104;-77
2023/09/17 03:10:02;;;;;;;;;;;21.50;82.00;;;;;;4992987;28;20101;-77
2023/09/17 03:12:30;;;;;;;;;;;21.50;82.00;;;;;;4990738;28;25073;-77
2023/09/17 03:14:57;;;;;;;;;;;21.50;82.00;;;;;;4989934;28;20597;-77
2023/09/17 03:17:23;;;;;;;;;;;21.50;82.10;;;;;;5025307;28;20095;-77
2023/09/17 03:19:51;;;;;;;;;;;21.50;82.10;;;;;;5028544;28;20124;-77
2023/09/17 03:22:18;;;;;;;;;;;21.40;82.10;;;;;;5033963;28;20779;-76
2023/09/17 03:24:44;;;;;;;;;;;21.40;82.00;;;;;;5038990;28;20081;-76
2023/09/17 03:27:13;;;;;;;;;;;21.40;82.10;;;;;;5054904;28;20143;-77
2023/09/17 03:29:39;;;;;;;;;;;21.40;82.10;;;;;;5006683;28;25129;-77
2023/09/17 03:32:06;;;;;;;;;;;21.40;82.10;;;;;;5014689;28;19980;-77
2023/09/17 03:34:33;;;;;;;;;;;21.40;82.20;;;;;;5047592;28;20105;-77
2023/09/17 03:37:00;;;;;;;;;;;21.40;82.20;;;;;;5057135;28;20076;-77
2023/09/17 03:39:27;;;;;;;;;;;21.30;82.30;;;;;;5057638;28;19977;-77
2023/09/17 03:41:53;;;;;;;;;;;21.30;82.30;;;;;;5046090;28;20162;-77
2023/09/17 03:44:21;;;;;;;;;;;21.30;82.50;;;;;;5037333;28;19969;-75
2023/09/17 03:46:48;;;;;;;;;;;21.30;82.50;;;;;;5058326;28;20154;-76
2023/09/17 03:49:15;;;;;;;;;;;21.30;82.60;;;;;;5061904;28;20272;-77
2023/09/17 03:51:41;;;;;;;;;;;21.30;82.70;;;;;;5059933;28;20505;-77
2023/09/17 03:54:08;;;;;;;;;;;21.30;82.70;;;;;;5052076;28;20112;-77
2023/09/17 03:56:35;;;;;;;;;;;21.20;82.70;;;;;;5061310;28;20101;-77
2023/09/17 03:59:03;;;;;;;;;;;21.30;82.70;;;;;;5056323;28;25138;-77
2023/09/17 04:01:32;;;;;;;;;;;21.20;82.70;;;;;;5060687;28;20018;-77
2023/09/17 04:03:58;;;;;;;;;;;21.20;82.80;;;;;;5058750;28;20938;-77
2023/09/17 04:06:25;;;;;;;;;;;21.20;82.80;;;;;;5066389;28;20177;-76
2023/09/17 04:08:53;;;;;;;;;;;21.20;82.80;;;;;;5062841;28;19988;-77
2023/09/17 04:11:20;;;;;;;;;;;21.20;82.90;;;;;;5057549;28;20120;-77
2023/09/17 04:13:47;;;;;;;;;;;21.10;82.80;;;;;;5061787;28;19969;-77
2023/09/17 04:16:16;;;;;;;;;;;21.20;83.00;;;;;;5064041;28;20109;-76
2023/09/17 04:18:44;;;;;;;;;;;21.20;83.00;;;;;;5064144;28;20219;-77
2023/09/17 04:21:10;;;;;;;;;;;21.10;83.70;;;;;;5059970;28;19979;-77
2023/09/17 04:23:37;;;;;;;;;;;21.10;83.00;;;;;;5048221;28;20703;-77
2023/09/17 04:26:04;;;;;;;;;;;21.10;83.00;;;;;;5065144;28;20502;-76
2023/09/17 04:28:31;;;;;;;;;;;21.10;83.10;;;;;;5062465;28;19972;-76
2023/09/17 04:30:57;;;;;;;;;;;21.10;83.10;;;;;;5046984;28;19973;-77
2023/09/17 04:33:24;;;;;;;;;;;21.10;83.20;;;;;;5063185;28;20091;-76
2023/09/17 04:35:57;;;;;;;;;;;21.00;83.10;;;;;;5065285;28;20104;-77
2023/09/17 04:38:23;;;;;;;;;;;21.00;83.20;;;;;;5046710;28;25061;-76
2023/09/17 04:40:50;;;;;;;;;;;21.00;83.20;;;;;;5047368;28;20106;-76
2023/09/17 04:43:19;;;;;;;;;;;21.00;83.20;;;;;;5066417;28;20480;-77
2023/09/17 04:45:46;;;;;;;;;;;21.00;83.20;;;;;;5055951;28;20062;-77
2023/09/17 04:48:13;;;;;;;;;;;21.00;83.30;;;;;;5063542;28;20864;-77
2023/09/17 04:50:42;;;;;;;;;;;21.00;83.30;;;;;;5045166;28;20152;-77
2023/09/17 04:53:10;;;;;;;;;;;21.00;83.40;;;;;;5061616;28;19962;-76
2023/09/17 04:55:37;;;;;;;;;;;20.90;83.30;;;;;;5060421;28;25120;-77
2023/09/17 04:58:04;;;;;;;;;;;20.90;83.40;;;;;;5041989;28;19957;-77
2023/09/17 05:00:31;;;;;;;;;;;20.90;83.40;;;;;;5061859;28;20154;-76
2023/09/17 05:02:57;;;;;;;;;;;20.90;83.40;;;;;;5064967;28;20422;-77
2023/09/17 05:05:24;;;;;;;;;;;20.90;83.40;;;;;;5067250;28;20094;-77
2023/09/17 05:07:51;;;;;;;;;;;20.80;83.30;;;;;;5062889;28;20622;-77
2023/09/17 05:10:19;;;;;;;;;;;20.80;83.30;;;;;;5064942;28;19972;-77
2023/09/17 05:12:46;;;;;;;;;;;20.80;83.40;;;;;;5064850;28;20128;-76
2023/09/17 05:15:12;;;;;;;;;;;20.80;83.40;;;;;;5063109;28;20140;-77
2023/09/17 05:17:39;;;;;;;;;;;20.80;83.40;;;;;;5071702;28;20121;-76
2023/09/17 05:20:07;;;;;;;;;;;20.80;83.50;;;;;;5076959;28;20463;-77
2023/09/17 05:22:34;;;;;;;;;;;20.80;83.50;;;;;;5041881;28;20088;-77
2023/09/17 05:25:00;;;;;;;;;;;20.80;83.50;;;;;;5062579;28;20088;-77
2023/09/17 05:27:30;;;;;;;;;;;20.70;83.40;;;;;;5059874;28;20143;-77
2023/09/17 05:29:56;;;;;;;;;;;20.70;84.20;;;;;;5061605;28;20098;-77
2023/09/17 05:32:23;;;;;;;;;;;20.70;83.40;;;;;;5062568;28;25054;-77
2023/09/17 05:34:50;;;;;;;;;;;20.70;83.40;;;;;;5056991;28;19983;-77
2023/09/17 05:37:16;;;;;;;;;;;20.70;83.40;;;;;;5077382;28;20094;-77
2023/09/17 05:39:43;;;;;;;;;;;20.70;83.50;;;;;;5059844;28;20568;-76
2023/09/17 05:42:09;;;;;;;;;;;20.70;83.50;;;;;;5060655;28;20563;-77
2023/09/17 05:44:37;;;;;;;;;;;20.60;83.40;;;;;;5060649;28;19965;-76
2023/09/17 05:47:04;;;;;;;;;;;20.60;83.50;;;;;;5058996;28;20106;-77
2023/09/17 05:49:31;;;;;;;;;;;20.60;83.50;;;;;;5058395;28;20900;-77
2023/09/17 05:51:59;;;;;;;;;;;20.60;83.50;;;;;;5066640;28;20113;-76
2023/09/17 05:54:25;;;;;;;;;;;20.60;83.50;;;;;;5029359;28;25110;-77
2023/09/17 05:56:52;;;;;;;;;;;20.60;83.60;;;;;;5063186;28;19962;-78
2023/09/17 05:59:19;;;;;;;;;;;20.60;83.60;;;;;;5064925;28;20196;-77
2023/09/17 06:01:47;;;;;;;;;;;20.60;83.60;;;;;;5046908;28;19976;-77
2023/09/17 06:04:14;;;;;;;;;;;20.60;83.60;;;;;;5058707;28;20108;-77
2023/09/17 06:06:40;;;;;;;;;;;20.60;83.70;;;;;;5062426;28;20167;-77
2023/09/17 06:09:07;;;;;;;;;;;20.50;83.60;;;;;;5060667;28;25075;-76
2023/09/17 06:11:34;;;;;;;;;;;20.50;83.60;;;;;;5046092;28;19962;-76
2023/09/17 06:14:00;;;;;;;;;;;20.50;83.70;;;;;;5059790;28;20541;-76
2023/09/17 06:16:27;;;;;;;;;;;20.50;83.70;;;;;;5065284;28;20111;-76
2023/09/17 06:18:55;;;;;;;;;;;20.50;83.70;;;;;;5063521;28;20106;-77
2023/09/17 06:21:22;;;;;;;;;;;20.40;83.80;;;;;;5061842;28;20002;-77
2023/09/17 06:23:49;;;;;;;;;;;20.50;83.80;;;;;;5042386;28;20121;-77
2023/09/17 06:26:15;;;;;;;;;;;20.40;83.70;;;;;;5064087;28;20601;-77
2023/09/17 06:28:42;;;;;;;;;;;20.40;83.80;;;;;;5065542;28;19982;-77
2023/09/17 06:31:09;;;;;;;;;;;20.40;83.90;;;;;;5047045;28;25079;-76
2023/09/17 06:33:36;;;;;;;;;;;20.40;84.00;;;;;;5047008;28;20510;-76
2023/09/17 06:36:04;;;;;;;;;;;20.40;84.00;;;;;;5059507;28;20639;-76
2023/09/17 06:38:31;;;;;;;;;;;20.40;84.00;;;;;;5057250;28;20568;-77
2023/09/17 06:41:01;;;;;;;;;;;20.40;84.00;;;;;;5056292;28;20106;-75
2023/09/17 06:43:30;;;;;;;;;;;20.40;84.10;;;;;;5043805;28;20221;-77
2023/09/17 06:45:57;;;;;;;;;;;20.40;84.10;;;;;;5008141;28;20459;-79
2023/09/17 06:48:28;;;;;;;;;;;20.40;84.10;;;;;;4990308;28;20144;-78
2023/09/17 06:50:55;;;;;;;;;;;20.40;84.20;;;;;;5040068;28;20134;-76
2023/09/17 06:53:23;;;;;;;;;;;20.40;84.20;;;;;;5053776;28;20178;-75
2023/09/17 06:55:50;;;;;;;;;;;20.40;84.30;;;;;;5033158;28;20091;-77
2023/09/17 06:58:17;;;;;;;;;;;20.40;84.30;;;;;;5067765;28;20096;-76
2023/09/17 07:00:44;;;;;;;;;;;20.30;84.30;;;;;;5055863;28;20240;-76
2023/09/17 07:03:10;;;;;;;;;;;20.30;84.40;;;;;;5040666;28;25068;-77
2023/09/17 07:05:39;;;;;;;;;;;20.30;84.50;;;;;;5056232;28;20043;-76
2023/09/17 07:08:06;;;;;;;;;;;20.30;85.40;;;;;;5060402;28;20099;-77
2023/09/17 07:10:34;;;;;;;;;;;20.30;84.70;;;;;;5059784;28;20089;-76
2023/09/17 07:13:01;;;;;;;;;;;20.30;84.80;;;;;;5055444;28;20123;-77
2023/09/17 07:15:28;;;;;;;;;;;20.30;84.80;;;;;;5037914;28;20545;-77
2023/09/17 07:17:55;;;;;;;;;;;20.30;84.80;;;;;;5032158;28;20116;-76
2023/09/17 07:20:24;;;;;;;;;;;20.30;84.80;;;;;;4978700;28;20074;-76
2023/09/17 07:22:51;;;;;;;;;;;20.30;84.90;;;;;;4971727;28;20115;-76
2023/09/17 07:25:17;;;;;;;;;;;20.30;85.00;;;;;;4978402;28;19968;-76
2023/09/17 07:27:45;;;;;;;;;;;20.30;85.80;;;;;;4969590;28;20683;-76
2023/09/17 07:30:12;;;;;;;;;;;20.30;85.00;;;;;;4971851;28;19982;-76
2023/09/17 07:32:41;;;;;;;;;;;20.30;85.00;;;;;;4962553;28;20107;-75
2023/09/17 07:35:08;;;;;;;;;;;20.40;85.10;;;;;;4959235;28;20973;-77
2023/09/17 07:37:37;;;;;;;;;;;20.30;85.00;;;;;;4972694;28;19969;-76
2023/09/17 07:40:04;;;;;;;;;;;20.40;85.00;;;;;;4989181;28;20091;-75
2023/09/17 07:42:31;;;;;;;;;;;20.40;85.10;;;;;;4997880;28;20584;-76
2023/09/17 07:44:59;;;;;;;;;;;20.30;85.10;;;;;;5020929;28;20492;-75
2023/09/17 07:47:27;;;;;;;;;;;20.40;85.20;;;;;;4969908;28;20109;-77
2023/09/17 07:49:54;;;;;;;;;;;20.40;85.20;;;;;;4993927;28;25177;-76
2023/09/17 07:52:20;;;;;;;;;;;20.40;85.20;;;;;;4971109;28;19973;-75
2023/09/17 07:54:47;;;;;;;;;;;20.40;85.30;;;;;;4978883;28;19980;-76
2023/09/17 07:57:15;;;;;;;;;;;20.40;85.20;;;;;;4963398;28;20572;-75
2023/09/17 07:59:41;;;;;;;;;;;20.40;85.20;;;;;;4951791;28;25131;-76
2023/09/17 08:02:10;;;;;;;;;;;20.50;85.20;;;;;;4950475;28;20045;-76
2023/09/17 08:04:36;;;;;;;;;;;20.50;85.00;;;;;;4979819;28;25065;-75
2023/09/17 08:07:04;;;;;;;;;;;20.50;85.00;;;;;;4985103;28;20025;-75
2023/09/17 08:09:30;;;;;;;;;;;20.50;85.00;;;;;;4994393;28;20150;-75
2023/09/17 08:11:57;;;;;;;;;;;20.50;85.20;;;;;;4989160;28;20143;-75
2023/09/17 08:14:25;;;;;;;;;;;20.60;85.00;;;;;;5002463;28;20028;-75
2023/09/17 08:16:52;;;;;;;;;;;20.60;85.00;;;;;;5001113;28;20093;-76
2023/09/17 08:19:20;;;;;;;;;;;20.60;85.00;;;;;;4988109;28;20155;-75
2023/09/17 08:21:48;;;;;;;;;;;20.60;85.00;;;;;;5004760;28;20751;-76
2023/09/17 08:24:15;;;;;;;;;;;20.70;84.90;;;;;;4991167;28;20098;-74
2023/09/17 08:26:42;;;;;;;;;;;20.70;84.90;;;;;;5006470;28;20185;-75
2023/09/17 08:29:09;;;;;;;;;;;20.80;85.00;;;;;;5008209;28;20562;-75
2023/09/17 08:31:36;;;;;;;;;;;20.80;84.90;;;;;;5005360;28;25048;-75
2023/09/17 08:34:05;;;;;;;;;;;20.80;84.80;;;;;;4983294;28;19974;-76
2023/09/17 08:36:33;;;;;;;;;;;20.90;84.80;;;;;;5004339;28;25065;-75
2023/09/17 08:39:00;;;;;;;;;;;20.90;84.50;;;;;;4985380;28;19979;-75
2023/09/17 08:41:26;;;;;;;;;;;21.00;84.30;;;;;;5001365;28;19979;-75
2023/09/17 08:43:53;;;;;;;;;;;21.10;84.30;;;;;;5007359;28;20140;-76
2023/09/17 08:46:21;;;;;;;;;;;21.10;84.60;;;;;;5002772;28;20188;-76
2023/09/17 08:48:48;;;;;;;;;;;21.10;84.20;;;;;;5009282;28;20230;-76
2023/09/17 08:51:18;;;;;;;;;;;21.20;83.80;;;;;;5002995;28;19978;-74
2023/09/17 08:54:03;;;;;;;;;;;21.30;84.00;;;;;;4990794;28;20075;-76
2023/09/17 08:56:30;;;;;;;;;;;21.30;83.60;;;;;;5003542;28;19979;-77
2023/09/17 08:59:02;;;;;;;;;;;21.40;83.20;;;;;;5005267;28;20179;-76
2023/09/17 09:01:28;;;;;;;;;;;21.40;82.90;;;;;;4979986;28;25071;-76
2023/09/17 09:03:56;;;;;;;;;;;21.40;82.60;;;;;;5005851;28;19972;-76
2023/09/17 09:06:24;;;;;;;;;;;21.50;82.40;;;;;;4984160;28;20332;-76
2023/09/17 09:08:52;;;;;;;;;;;21.50;82.20;;;;;;5009152;28;25060;-76
2023/09/17 09:11:19;;;;;;;;;;;21.60;82.00;;;;;;4986910;28;19973;-76
2023/09/17 09:13:47;;;;;;;;;;;21.70;81.90;;;;;;5006339;28;25064;-76
2023/09/17 09:16:13;;;;;;;;;;;21.70;81.60;;;;;;5008704;28;19970;-76
2023/09/17 09:18:40;;;;;;;;;;;21.80;81.40;;;;;;5007955;28;19978;-77
2023/09/17 09:21:08;;;;;;;;;;;21.90;81.20;;;;;;5001653;28;20127;-76
2023/09/17 09:23:35;;;;;;;;;;;21.90;80.80;;;;;;5000262;28;20507;-76
2023/09/17 09:26:06;;;;;;;;;;;21.90;80.50;;;;;;5005282;28;25068;-77
2023/09/17 09:28:33;;;;;;;;;;;22.00;80.30;;;;;;4985982;28;25086;-75
2023/09/17 09:30:59;;;;;;;;;;;22.10;80.20;;;;;;5001762;28;20218;-75
2023/09/17 09:33:28;;;;;;;;;;;22.10;80.20;;;;;;4988521;28;20677;-76
2023/09/17 09:35:54;;;;;;;;;;;22.20;79.90;;;;;;5004970;28;20132;-76
2023/09/17 09:38:21;;;;;;;;;;;22.30;79.70;;;;;;5003665;28;20137;-77
2023/09/17 09:40:48;;;;;;;;;;;22.30;79.20;;;;;;5004143;28;20135;-77
2023/09/17 09:43:30;;;;;;;;;;;22.40;79.20;;;;;;5014156;28;25162;-77
2023/09/17 09:46:02;;;;;;;;;;;22.50;79.10;;;;;;5018733;28;25137;-77
2023/09/17 09:48:31;;;;;;;;;;;22.50;79.00;;;;;;5022070;28;25101;-77
2023/09/17 09:50:58;;;;;;;;;;;22.60;78.80;;;;;;5016463;28;25141;-77
2023/09/17 09:53:24;;;;;;;;;;;22.70;78.60;;;;;;5017034;28;20618;-77
2023/09/17 09:55:51;;;;;;;;;;;22.70;78.20;;;;;;5020889;28;20234;-77
2023/09/17 09:58:18;;;;;;;;;;;22.80;78.20;;;;;;5016138;28;25078;-77
2023/09/17 10:00:49;;;;;;;;;;;22.80;78.00;;;;;;5020301;28;25118;-77
2023/09/17 10:03:17;;;;;;;;;;;22.90;77.80;;;;;;5021750;28;25065;-76
2023/09/17 10:05:44;;;;;;;;;;;23.00;77.60;;;;;;5017253;28;25200;-76
2023/09/17 10:08:12;;;;;;;;;;;23.00;77.50;;;;;;5022270;28;25252;-77
2023/09/17 10:10:39;;;;;;;;;;;23.10;77.40;;;;;;5017629;28;25078;-75
2023/09/17 10:13:07;;;;;;;;;;;23.20;77.30;;;;;;4998086;28;25079;-76
2023/09/17 10:15:36;;;;;;;;;;;23.20;77.20;;;;;;5014773;28;20276;-76
2023/09/17 10:18:05;;;;;;;;;;;23.30;76.90;;;;;;5003978;28;25057;-76
2023/09/17 10:20:31;;;;;;;;;;;23.30;76.80;;;;;;5016851;28;25102;-76
2023/09/17 10:22:58;;;;;;;;;;;23.40;76.60;;;;;;5018000;28;20974;-77
2023/09/17 10:25:25;;;;;;;;;;;23.40;76.10;;;;;;5020572;28;25064;-75
2023/09/17 10:27:52;;;;;;;;;;;23.50;76.30;;;;;;5015423;28;20229;-76
2023/09/17 10:30:20;;;;;;;;;;;23.60;75.60;;;;;;5005868;28;25084;-76
2023/09/17 10:32:53;;;;;;;;;;;23.60;75.50;;;;;;5023644;28;25053;-78
2023/09/17 10:35:22;;;;;;;;;;;23.60;75.50;;;;;;5016427;28;25072;-76
2023/09/17 10:37:49;;;;;;;;;;;23.70;75.50;;;;;;5015496;28;25148;-77
2023/09/17 10:40:18;;;;;;;;;;;23.80;75.00;;;;;;5017247;28;25075;-75
2023/09/17 10:42:45;;;;;;;;;;;23.80;74.60;;;;;;5014341;28;25086;-75
2023/09/17 10:45:12;;;;;;;;;;;23.80;74.70;;;;;;5013899;28;20682;-75
2023/09/17 10:47:40;;;;;;;;;;;23.90;74.80;;;;;;5032109;28;25075;-75
2023/09/17 10:50:07;;;;;;;;;;;24.00;74.70;;;;;;5015520;28;25058;-76
2023/09/17 10:52:37;;;;;;;;;;;24.00;74.50;;;;;;5014957;28;25082;-76
2023/09/17 10:55:07;;;;;;;;;;;24.00;74.30;;;;;;5014660;28;25082;-74
2023/09/17 10:57:37;;;;;;;;;;;24.10;74.10;;;;;;5015030;28;25072;-77
2023/09/17 11:00:05;;;;;;;;;;;24.10;73.60;;;;;;5017845;28;25074;-75
2023/09/17 11:02:34;;;;;;;;;;;24.20;73.50;;;;;;5017671;28;25080;-76
2023/09/17 11:05:07;;;;;;;;;;;24.30;73.80;;;;;;5017692;28;25057;-77
2023/09/17 11:07:36;;;;;;;;;;;24.30;73.30;;;;;;5011194;28;20237;-77
2023/09/17 11:10:05;;;;;;;;;;;24.30;73.00;;;;;;5016096;28;20229;-76
2023/09/17 11:12:32;;;;;;;;;;;24.40;73.20;;;;;;5013260;28;20871;-77
2023/09/17 11:14:59;;;;;;;;;;;24.50;73.20;;;;;;4997023;28;20223;-76
2023/09/17 11:17:30;;;;;;;;;;;24.50;72.90;;;;;;5016859;28;25154;-76
2023/09/17 11:19:57;;;;;;;;;;;24.50;72.80;;;;;;5026597;28;25074;-77
2023/09/17 11:22:24;;;;;;;;;;;24.60;72.50;;;;;;5019084;28;20423;-76
2023/09/17 11:24:53;;;;;;;;;;;24.60;72.00;;;;;;5017876;28;20272;-77
2023/09/17 11:27:21;;;;;;;;;;;24.60;72.10;;;;;;5016832;28;20246;-76
2023/09/17 11:29:49;;;;;;;;;;;24.80;72.10;;;;;;5020867;28;25131;-77
2023/09/17 11:32:21;;;;;;;;;;;24.80;71.90;;;;;;5018169;28;20212;-76
2023/09/17 11:34:54;;;;;;;;;;;24.80;71.60;;;;;;5015007;28;25073;-77
2023/09/17 11:37:22;;;;;;;;;;;24.90;71.30;;;;;;5000980;28;25070;-76
2023/09/17 11:39:53;;;;;;;;;;;24.90;70.70;;;;;;5025221;28;20224;-76
2023/09/17 11:42:26;;;;;;;;;;;25.00;70.50;;;;;;5029916;28;25079;-75
2023/09/17 11:44:55;;;;;;;;;;;25.00;70.70;;;;;;5019121;28;25154;-77
2023/09/17 11:47:22;;;;;;;;;;;25.10;70.40;;;;;;5002152;28;20269;-76
2023/09/17 11:49:50;;;;;;;;;;;25.10;70.40;;;;;;5020099;28;25120;-76
2023/09/17 11:52:16;;;;;;;;;;;25.10;70.00;;;;;;5018284;28;25177;-76
2023/09/17 11:54:48;;;;;;;;;;;25.20;70.50;;;;;;5022836;28;25075;-76
2023/09/17 11:57:21;;;;;;;;;;;25.20;69.30;;;;;;5020082;28;20409;-76
2023/09/17 11:59:49;;;;;;;;;;;25.30;69.50;;;;;;5033423;28;20278;-76
2023/09/17 12:02:17;;;;;;;;;;;25.40;69.50;;;;;;5020141;28;25065;-76
2023/09/17 12:04:44;;;;;;;;;;;25.40;69.90;;;;;;5004633;28;20227;-75
2023/09/17 12:07:11;;;;;;;;;;;25.40;69.80;;;;;;5005173;28;25084;-76
2023/09/17 12:09:48;;;;;;;;;;;25.40;69.90;;;;;;5006487;28;20212;-77
2023/09/17 12:12:17;;;;;;;;;;;25.40;69.50;;;;;;5017361;28;20329;-76
2023/09/17 12:14:44;;;;;;;;;;;25.40;69.60;;;;;;5017884;28;20215;-77
2023/09/17 12:17:13;;;;;;;;;;;25.70;66.50;;;;;;5001780;28;20255;-76
2023/09/17 12:19:40;;;;;;;;;;;26.40;63.50;;;;;;5020199;28;20300;-78
2023/09/17 12:22:08;;;;;;;;;;;26.90;62.80;;;;;;5016727;28;20187;-77
2023/09/17 12:24:37;;;;;;;;;;;27.00;62.80;;;;;;5009379;28;20059;-78
2023/09/17 12:27:19;;;;;;;;;;;26.90;63.40;;;;;;4990280;28;20927;-77
2023/09/17 12:29:45;;;;;;;;;;;26.80;63.60;;;;;;4992566;28;20119;-78
2023/09/17 12:32:15;;;;;;;;;;;26.60;64.10;;;;;;4984627;28;20188;-77
2023/09/17 12:34:42;;;;;;;;;;;26.50;64.80;;;;;;5006200;28;20130;-77
2023/09/17 12:37:09;;;;;;;;;;;26.40;65.10;;;;;;5007300;28;20077;-76
2023/09/17 12:39:36;;;;;;;;;;;26.30;65.60;;;;;;5009322;28;25093;-77
2023/09/17 12:42:03;;;;;;;;;;;26.30;65.80;;;;;;4984347;28;20046;-78
2023/09/17 12:44:30;;;;;;;;;;;26.30;65.90;;;;;;5010279;28;20684;-76
2023/09/17 12:46:57;;;;;;;;;;;26.30;65.40;;;;;;4991060;28;25055;-78
2023/09/17 12:49:26;;;;;;;;;;;26.30;65.70;;;;;;4984963;28;20041;-78
2023/09/17 12:51:53;;;;;;;;;;;26.20;65.40;;;;;;5008594;28;20445;-77
2023/09/17 12:54:21;;;;;;;;;;;26.30;66.40;;;;;;4973469;28;20161;-77
2023/09/17 12:56:48;;;;;;;;;;;26.30;66.40;;;;;;5005075;28;20109;-77
2023/09/17 12:59:15;;;;;;;;;;;26.30;65.60;;;;;;5007475;28;19970;-77
2023/09/17 13:01:51;;;;;;;;;;;26.30;66.10;;;;;;5007924;28;25070;-78
2023/09/17 13:04:17;;;;;;;;;;;26.30;65.00;;;;;;4990356;28;19996;-78
2023/09/17 13:06:46;;;;;;;;;;;26.40;66.10;;;;;;5001668;28;25052;-77
2023/09/17 13:09:13;;;;;;;;;;;26.40;66.10;;;;;;4985654;28;19978;-77
2023/09/17 13:11:40;;;;;;;;;;;26.50;66.20;;;;;;5006606;28;25155;-77
2023/09/17 13:14:06;;;;;;;;;;;26.60;65.90;;;;;;5002313;28;20638;-78
2023/09/17 13:16:33;;;;;;;;;;;26.60;65.70;;;;;;4983841;28;19985;-77
2023/09/17 13:19:00;;;;;;;;;;;26.70;65.60;;;;;;5004004;28;20149;-77
2023/09/17 13:21:29;;;;;;;;;;;26.70;65.00;;;;;;5012982;28;20085;-77
2023/09/17 13:23:59;;;;;;;;;;;26.70;64.10;;;;;;4984384;28;20202;-77
2023/09/17 13:26:26;;;;;;;;;;;26.80;64.20;;;;;;4998886;28;19973;-76
2023/09/17 13:28:53;;;;;;;;;;;26.80;64.10;;;;;;5019345;28;19969;-77
2023/09/17 13:31:20;;;;;;;;;;;26.80;64.70;;;;;;5004927;28;20151;-77
2023/09/17 13:33:47;;;;;;;;;;;26.90;64.20;;;;;;4996591;28;20094;-78
2023/09/17 13:36:15;;;;;;;;;;;27.00;63.60;;;;;;5004542;28;19984;-77
2023/09/17 13:38:42;;;;;;;;;;;27.00;63.20;;;;;;5008971;28;19976;-77
2023/09/17 13:41:17;;;;;;;;;;;27.10;63.30;;;;;;5002017;28;20086;-76
2023/09/17 13:43:44;;;;;;;;;;;27.10;63.70;;;;;;5002625;28;19966;-77
2023/09/17 13:46:15;;;;;;;;;;;27.20;63.90;;;;;;5007237;28;20110;-75
2023/09/17 13:48:42;;;;;;;;;;;27.30;63.90;;;;;;5008679;28;20201;-76
2023/09/17 13:51:09;;;;;;;;;;;27.30;63.60;;;;;;5002939;28;19966;-76
2023/09/17 13:53:36;;;;;;;;;;;27.40;63.10;;;;;;5006125;28;25069;-76
2023/09/17 13:56:03;;;;;;;;;;;27.40;62.80;;;;;;5002588;28;20432;-77
2023/09/17 13:58:31;;;;;;;;;;;27.40;63.00;;;;;;4987895;28;20468;-76
2023/09/17 14:00:57;;;;;;;;;;;27.50;62.90;;;;;;5003482;28;20110;-76
2023/09/17 14:03:24;;;;;;;;;;;27.50;62.70;;;;;;5005604;28;19970;-77
2023/09/17 14:05:51;;;;;;;;;;;27.50;62.00;;;;;;5005406;28;25064;-77
2023/09/17 14:08:18;;;;;;;;;;;27.60;62.70;;;;;;4989555;28;20059;-76
2023/09/17 14:10:45;;;;;;;;;;;27.60;62.30;;;;;;5008197;28;20135;-76
2023/09/17 14:13:15;;;;;;;;;;;27.70;62.20;;;;;;5002367;28;25072;-76
2023/09/17 14:15:43;;;;;;;;;;;27.70;62.00;;;;;;5005190;28;20663;-76
2023/09/17 14:18:11;;;;;;;;;;;27.70;61.90;;;;;;5002957;28;25064;-76